Logo AVAMET
Benvolgut visitant, si us plau, ingressa Recuperar contrasenya
AVAMET paisatges

Alzira la Casella

Dades diàries. Acumulats / Últims 30 dies disponibles

Data Temperatura (°C) Humitat rel. (%) Pressió rel. (hPa) Vent (km/h) Precipitació
Mínima Mitjana Màxima Amplitud
tèrmica
Mínima Mitjana Màxima Mínima Mitjana Màxima Predom. Mitjana Ràfega
màxima
Total
(mm)
Índex-n
Mínima Mitjana Màxima Mínima Mitjana Màxima n
0 a 1
P0 max
mm 5'
Dades mensuals acumulades fins l'últim dia disponible
06/2020 17,1 17,1 17,1 23,2 29,8 29,8 29,8 12,7 42 70 91 1.014 1.016 1.017   3,5 32,2 0,0
Dades anuals acumulades fins l'últim dia disponible
2020 2,1 9,9 17,4 14,7 9,2 20,8 33,6 31,5 23 76 98 1.002 1.021 1.036   3,2 86,9 774,2
Últims 30 dies disponibles
01-06-2020 17,1     23,2     29,8 12,7 42 70 91 1.014 1.016 1.017 E 3,5 32,2 0,0
31-05-2020 15,4     21,6     30,2 14,8 41 72 92 1.011 1.014 1.016 ESE 3,4 20,9 0,0
30-05-2020 14,4     21,2     26,6 12,2 45 66 92 1.013 1.016 1.018 E 3,7 25,7 0,0
29-05-2020 13,8     22,0     29,4 15,6 38 62 94 1.013 1.018 1.023 E 4,3 24,1 0,0
28-05-2020 17,4     20,7     25,3 7,9 46 75 92 1.021 1.025 1.027 SE 3,5 27,4 0,0
27-05-2020 14,3     20,3     27,2 12,9 44 74 94 1.025 1.026 1.028 SE 4,5 38,6 0,0
26-05-2020 14,6     20,1     26,0 11,4 53 75 92 1.025 1.026 1.028 SE 3,2 27,4 0,0
25-05-2020 14,8     19,6     24,1 9,3 55 76 92 1.025 1.027 1.028 E 2,7 17,7 0,0
24-05-2020 17,1     19,8     21,4 4,3 79 85 90 1.027 1.028 1.029 WSW 1,6 16,1 0,0
23-05-2020 16,7     23,8     31,8 15,1 34 65 89 1.023 1.025 1.027 E 4,0 20,9 0,0
22-05-2020 17,2     24,3     31,7 14,5 40 64 89 1.021 1.023 1.026 E 3,2 20,9 0,0
21-05-2020 15,8     23,7     32,7 16,9 37 66 90 1.018 1.019 1.022 ESE 2,7 19,3 0,0
20-05-2020 15,3     23,6     32,6 17,3 32 59 85 1.014 1.016 1.018 ESE 2,9 17,7 0,0
19-05-2020 13,9     22,5     31,6 17,7 36 59 88 1.015 1.018 1.021 E 3,7 25,7 0,0
18-05-2020 13,5     20,6     28,2 14,7 39 65 92 1.018 1.021 1.023 ESE 4,0 27,4 0,0
17-05-2020 13,3     18,7     24,5 11,2 47 74 94 1.020 1.021 1.023 E 2,7 25,7 0,0
16-05-2020 13,9     16,1     20,6 6,7 68 89 95 1.015 1.017 1.020 ESE 2,3 32,2 3,8 0,42 0,40
15-05-2020 11,0     15,6     20,1 9,1 59 80 93 1.011 1.013 1.016 ESE 2,6 25,7 1,0 0,20
14-05-2020 12,7     15,0     19,1 6,4 60 81 94 1.004 1.006 1.011 WNW 2,9 24,1 22,4 0,58 6,50
13-05-2020 11,2     18,7     26,2 15,0 38 65 93 1.005 1.007 1.008 WNW 3,4 24,1 0,0
12-05-2020 14,8     18,4     24,4 9,6 48 73 94 1.007 1.010 1.013 SE 3,9 38,6 1,2 0,37 0,40
11-05-2020 14,8     20,5     27,1 12,3 38 56 76 1.008 1.009 1.012 WNW 6,4 33,8 0,0
10-05-2020 14,8     19,5     25,3 10,5 35 68 95 1.005 1.007 1.010 WNW 6,0 38,6 2,0
09-05-2020 14,4     18,7     24,7 10,3 66 83 95 1.010 1.014 1.017 ENE 3,2 25,7 0,0
08-05-2020 15,3     19,4     23,3 8,0 64 80 91 1.015 1.017 1.019 SE 2,9 32,2 0,0
07-05-2020 14,6     19,8     25,0 10,4 48 76 93 1.018 1.019 1.020 ESE 3,2 27,4 0,0
06-05-2020 15,9     21,1     28,0 12,1 47 68 85 1.015 1.017 1.019 E 4,2 25,7 0,0
05-05-2020 14,9     22,4     31,7 16,8 39 68 93 1.013 1.015 1.017 ESE 2,1 16,1 0,0
04-05-2020 14,6     20,6     29,1 14,5 44 76 92 1.013 1.016 1.018 ESE 2,7 22,5 0,0
03-05-2020 16,2     22,7     28,5 12,3 40 58 88 1.016 1.018 1.020 ESE 4,5 27,4 0,0
Últims 13 mesos disponibles
04/2020 7,8 11,2 16,8 15,2 16,1 20,4 26,6 18,8 55 80 95 1.007 1.017 1.027 E 3,1 35,4 128,0
03/2020 4,4 9,3 14,2 13,6 10,1 18,7 28,7 24,3 47 74 95 1.008 1.018 1.027 SE 4,0 57,9 277,6
02/2020 5,2 8,3 11,9 13,9 13,6 21,6 26,1 20,9 49 74 94 1.015 1.026 1.034 ESE 2,5 32,2 5,2
01/2020 2,1 5,7 11,2 9,9 9,2 16,0 20,3 18,2 66 82 95 1.016 1.026 1.034 ESE 2,8 86,9 333,0
12/2019 4,2 9,1 17,5 12,6 13,1 17,8 24,7 20,5 53 78 95 1.003 1.020 1.034 ESE 3,8 70,8 410,8
11/2019 2,9 8,7 18,6 13,6 15,1 19,1 26,9 24,0 56 68 84 1.000 1.012 1.020 WNW 3,7 38,6 17,2
10/2019 8,5 14,2 18,8 19,0 15,2 25,6 33,7 25,2 53 75 92 1.009 1.017 1.023 ESE 2,4 27,4 67,2
09/2019 14,1 18,6 21,1 23,1 21,2 28,3 35,6 21,5 44 76 94 1.011 1.018 1.025 E 3,4 57,9 226,8
08/2019 16,8 20,9 24,8 26,5 27,5 33,0 41,8 25,0 41 70 84 1.011 1.016 1.021 E 3,7 41,8 19,2
07/2019 18,8 21,0 25,5 26,7 27,2 32,9 39,7 20,9 46 67 79 1.007 1.014 1.022 E 4,2 45,1 3,8
06/2019 11,4 16,1 20,8 22,8 22,4 29,7 38,5 27,1 41 63 81 1.009 1.016 1.022 E 4,0 45,1 4,8
05/2019 7,5 12,7 17,3 18,8 19,3 25,4 32,9 25,4 50 66 85 1.006 1.016 1.025 E 4,1 38,6 17,6
04/2019 8,8 11,2 13,2 15,2 13,6 19,7 25,0 16,2 53 76 96 1.000 1.015 1.025 3,4 59,5 430,2
Tots els anys disponibles
2019 1.314,6
Temperatura (°C)
Humitat relativa (%)
Velocitat del vent i ràfega màxima (km/h)
Direcció del vent (°)
Pressió (hPa)
Precipitació (mm)
Nota sobre les dades: s'avisa a l'usuari de la provisionalitat i no oficialitat d'aquestes dades
Logo AVAMET blanc
Web allotjada a Sollutia
Llicència de Creative CommonsLa web d'AVAMET i els seus continguts estan subjectes a una llicència de
Reconeixement - No Comercial - Compartir igual
Últimes estacions: Xodos - la Vega (Soci), la Vall d'Alba - Centre (Ajuntament soci), Chera (Ajuntament soci) - - -